sensor_id;sensor_type;location;lat;lon;timestamp;P1;durP1;ratioP1;P2;durP2;ratioP2
61911;SDS011;49973;52.084;5.412;2022-12-07T00:01:42;14.93;;;6.30;;
61911;SDS011;49973;52.084;5.412;2022-12-07T00:04:13;11.50;;;6.60;;
61911;SDS011;49973;52.084;5.412;2022-12-07T00:06:43;12.57;;;6.10;;
61911;SDS011;49973;52.084;5.412;2022-12-07T00:09:13;10.57;;;6.00;;
61911;SDS011;49973;52.084;5.412;2022-12-07T00:11:47;14.63;;;6.43;;
61911;SDS011;49973;52.084;5.412;2022-12-07T00:14:17;8.93;;;5.57;;
61911;SDS011;49973;52.084;5.412;2022-12-07T00:16:48;11.20;;;6.30;;
61911;SDS011;49973;52.084;5.412;2022-12-07T00:19:17;8.73;;;5.20;;
61911;SDS011;49973;52.084;5.412;2022-12-07T00:21:45;10.03;;;5.27;;
61911;SDS011;49973;52.084;5.412;2022-12-07T00:24:14;11.63;;;5.77;;
61911;SDS011;49973;52.084;5.412;2022-12-07T00:26:42;6.83;;;5.23;;
61911;SDS011;49973;52.084;5.412;2022-12-07T00:29:13;14.43;;;5.40;;
61911;SDS011;49973;52.084;5.412;2022-12-07T00:31:44;13.13;;;8.00;;
61911;SDS011;49973;52.084;5.412;2022-12-07T00:34:14;9.43;;;5.83;;
61911;SDS011;49973;52.084;5.412;2022-12-07T00:36:43;13.00;;;5.07;;
61911;SDS011;49973;52.084;5.412;2022-12-07T00:39:12;12.03;;;5.27;;
61911;SDS011;49973;52.084;5.412;2022-12-07T00:41:41;8.20;;;4.83;;
61911;SDS011;49973;52.084;5.412;2022-12-07T00:44:11;12.70;;;5.87;;
61911;SDS011;49973;52.084;5.412;2022-12-07T00:46:39;15.17;;;5.97;;
61911;SDS011;49973;52.084;5.412;2022-12-07T00:49:08;10.63;;;5.93;;
61911;SDS011;49973;52.084;5.412;2022-12-07T00:51:36;16.23;;;6.27;;
61911;SDS011;49973;52.084;5.412;2022-12-07T00:54:05;15.87;;;6.33;;
61911;SDS011;49973;52.084;5.412;2022-12-07T00:56:33;14.80;;;5.47;;
61911;SDS011;49973;52.084;5.412;2022-12-07T00:59:02;10.27;;;4.97;;
61911;SDS011;49973;52.084;5.412;2022-12-07T01:01:34;16.10;;;5.77;;
61911;SDS011;49973;52.084;5.412;2022-12-07T01:04:04;9.50;;;4.90;;
61911;SDS011;49973;52.084;5.412;2022-12-07T01:06:32;13.47;;;4.50;;
61911;SDS011;49973;52.084;5.412;2022-12-07T01:09:01;20.03;;;5.07;;
61911;SDS011;49973;52.084;5.412;2022-12-07T01:11:30;7.90;;;4.00;;
61911;SDS011;49973;52.084;5.412;2022-12-07T01:13:59;13.57;;;4.47;;
61911;SDS011;49973;52.084;5.412;2022-12-07T01:16:29;6.43;;;4.13;;
61911;SDS011;49973;52.084;5.412;2022-12-07T01:19:00;12.00;;;4.33;;
61911;SDS011;49973;52.084;5.412;2022-12-07T01:21:29;13.90;;;4.53;;
61911;SDS011;49973;52.084;5.412;2022-12-07T01:24:01;14.40;;;4.60;;
61911;SDS011;49973;52.084;5.412;2022-12-07T01:26:31;3.77;;;3.20;;
61911;SDS011;49973;52.084;5.412;2022-12-07T01:28:59;10.53;;;4.00;;
61911;SDS011;49973;52.084;5.412;2022-12-07T01:31:28;5.80;;;3.73;;
61911;SDS011;49973;52.084;5.412;2022-12-07T01:33:58;5.67;;;3.67;;
61911;SDS011;49973;52.084;5.412;2022-12-07T01:36:29;10.97;;;4.47;;
61911;SDS011;49973;52.084;5.412;2022-12-07T01:39:00;9.00;;;3.73;;
61911;SDS011;49973;52.084;5.412;2022-12-07T01:41:32;13.00;;;3.83;;
61911;SDS011;49973;52.084;5.412;2022-12-07T01:44:10;10.07;;;2.73;;
61911;SDS011;49973;52.084;5.412;2022-12-07T01:46:42;12.87;;;3.50;;
61911;SDS011;49973;52.084;5.412;2022-12-07T01:49:14;14.20;;;4.27;;
61911;SDS011;49973;52.084;5.412;2022-12-07T01:51:46;10.47;;;3.40;;
61911;SDS011;49973;52.084;5.412;2022-12-07T01:54:16;5.83;;;2.67;;
61911;SDS011;49973;52.084;5.412;2022-12-07T01:56:48;7.87;;;3.30;;
61911;SDS011;49973;52.084;5.412;2022-12-07T01:59:19;4.37;;;2.57;;
61911;SDS011;49973;52.084;5.412;2022-12-07T02:01:51;10.60;;;3.33;;
61911;SDS011;49973;52.084;5.412;2022-12-07T02:04:22;5.77;;;2.73;;
61911;SDS011;49973;52.084;5.412;2022-12-07T02:06:51;19.17;;;3.37;;
61911;SDS011;49973;52.084;5.412;2022-12-07T02:09:21;5.10;;;2.57;;
61911;SDS011;49973;52.084;5.412;2022-12-07T02:11:50;13.43;;;3.53;;
61911;SDS011;49973;52.084;5.412;2022-12-07T02:14:19;4.67;;;2.80;;
61911;SDS011;49973;52.084;5.412;2022-12-07T02:16:51;6.87;;;3.30;;
61911;SDS011;49973;52.084;5.412;2022-12-07T02:19:44;7.40;;;3.67;;
61911;SDS011;49973;52.084;5.412;2022-12-07T02:22:49;12.47;;;5.53;;
61911;SDS011;49973;52.084;5.412;2022-12-07T02:25:32;8.60;;;3.57;;
61911;SDS011;49973;52.084;5.412;2022-12-07T02:28:12;8.33;;;3.60;;
61911;SDS011;49973;52.084;5.412;2022-12-07T02:30:50;15.77;;;3.37;;
61911;SDS011;49973;52.084;5.412;2022-12-07T02:33:22;10.40;;;3.17;;
61911;SDS011;49973;52.084;5.412;2022-12-07T02:35:57;11.10;;;3.23;;
61911;SDS011;49973;52.084;5.412;2022-12-07T02:38:31;9.40;;;3.13;;
61911;SDS011;49973;52.084;5.412;2022-12-07T02:41:07;8.73;;;3.53;;
61911;SDS011;49973;52.084;5.412;2022-12-07T02:43:41;7.97;;;3.60;;
61911;SDS011;49973;52.084;5.412;2022-12-07T02:46:15;11.40;;;3.13;;
61911;SDS011;49973;52.084;5.412;2022-12-07T02:48:47;16.93;;;3.47;;
61911;SDS011;49973;52.084;5.412;2022-12-07T02:51:18;9.57;;;2.80;;
61911;SDS011;49973;52.084;5.412;2022-12-07T02:53:47;8.43;;;3.40;;
61911;SDS011;49973;52.084;5.412;2022-12-07T02:56:18;12.00;;;4.00;;
61911;SDS011;49973;52.084;5.412;2022-12-07T02:58:56;7.77;;;2.83;;
61911;SDS011;49973;52.084;5.412;2022-12-07T03:01:33;13.20;;;2.83;;
61911;SDS011;49973;52.084;5.412;2022-12-07T03:04:09;8.07;;;3.33;;
61911;SDS011;49973;52.084;5.412;2022-12-07T03:06:48;7.03;;;2.93;;
61911;SDS011;49973;52.084;5.412;2022-12-07T03:09:21;11.43;;;3.33;;
61911;SDS011;49973;52.084;5.412;2022-12-07T03:12:00;8.60;;;2.90;;
61911;SDS011;49973;52.084;5.412;2022-12-07T03:14:35;7.60;;;3.07;;
61911;SDS011;49973;52.084;5.412;2022-12-07T03:17:10;12.17;;;3.33;;
61911;SDS011;49973;52.084;5.412;2022-12-07T03:19:42;16.37;;;3.53;;
61911;SDS011;49973;52.084;5.412;2022-12-07T03:22:12;5.77;;;2.73;;
61911;SDS011;49973;52.084;5.412;2022-12-07T03:24:43;9.13;;;2.50;;
61911;SDS011;49973;52.084;5.412;2022-12-07T03:27:16;6.37;;;2.13;;
61911;SDS011;49973;52.084;5.412;2022-12-07T03:29:48;4.80;;;2.27;;
61911;SDS011;49973;52.084;5.412;2022-12-07T03:32:24;3.43;;;1.90;;
61911;SDS011;49973;52.084;5.412;2022-12-07T03:34:56;8.50;;;2.13;;
61911;SDS011;49973;52.084;5.412;2022-12-07T03:37:32;5.13;;;2.10;;
61911;SDS011;49973;52.084;5.412;2022-12-07T03:40:05;4.10;;;2.23;;
61911;SDS011;49973;52.084;5.412;2022-12-07T03:42:40;6.30;;;2.37;;
61911;SDS011;49973;52.084;5.412;2022-12-07T03:45:09;7.37;;;2.60;;
61911;SDS011;49973;52.084;5.412;2022-12-07T03:47:42;6.43;;;2.40;;
61911;SDS011;49973;52.084;5.412;2022-12-07T03:50:15;6.57;;;1.93;;
61911;SDS011;49973;52.084;5.412;2022-12-07T03:52:51;6.53;;;2.20;;
61911;SDS011;49973;52.084;5.412;2022-12-07T03:55:24;5.10;;;2.20;;
61911;SDS011;49973;52.084;5.412;2022-12-07T03:57:56;7.77;;;2.37;;
61911;SDS011;49973;52.084;5.412;2022-12-07T04:00:30;5.47;;;1.90;;
61911;SDS011;49973;52.084;5.412;2022-12-07T04:03:00;7.93;;;2.17;;
61911;SDS011;49973;52.084;5.412;2022-12-07T04:05:29;7.53;;;2.00;;
61911;SDS011;49973;52.084;5.412;2022-12-07T04:07:57;5.37;;;2.50;;
61911;SDS011;49973;52.084;5.412;2022-12-07T04:10:26;9.67;;;2.40;;
61911;SDS011;49973;52.084;5.412;2022-12-07T04:12:54;24.10;;;2.63;;
61911;SDS011;49973;52.084;5.412;2022-12-07T04:15:23;2.10;;;1.70;;
61911;SDS011;49973;52.084;5.412;2022-12-07T04:17:52;9.90;;;1.73;;
61911;SDS011;49973;52.084;5.412;2022-12-07T04:20:23;9.37;;;1.70;;
61911;SDS011;49973;52.084;5.412;2022-12-07T04:22:51;6.37;;;1.67;;
61911;SDS011;49973;52.084;5.412;2022-12-07T04:25:20;4.57;;;2.10;;
61911;SDS011;49973;52.084;5.412;2022-12-07T04:27:49;5.23;;;1.40;;
61911;SDS011;49973;52.084;5.412;2022-12-07T04:30:17;7.83;;;1.60;;
61911;SDS011;49973;52.084;5.412;2022-12-07T04:32:46;3.93;;;1.57;;
61911;SDS011;49973;52.084;5.412;2022-12-07T04:35:14;4.40;;;1.77;;
61911;SDS011;49973;52.084;5.412;2022-12-07T04:37:44;3.73;;;1.60;;
61911;SDS011;49973;52.084;5.412;2022-12-07T04:40:12;6.63;;;1.77;;
61911;SDS011;49973;52.084;5.412;2022-12-07T04:42:41;6.70;;;1.70;;
61911;SDS011;49973;52.084;5.412;2022-12-07T04:45:09;9.87;;;1.30;;
61911;SDS011;49973;52.084;5.412;2022-12-07T04:47:38;5.90;;;1.77;;
61911;SDS011;49973;52.084;5.412;2022-12-07T04:50:07;7.77;;;1.30;;
61911;SDS011;49973;52.084;5.412;2022-12-07T04:52:37;5.17;;;1.67;;
61911;SDS011;49973;52.084;5.412;2022-12-07T04:55:07;5.20;;;1.97;;
61911;SDS011;49973;52.084;5.412;2022-12-07T04:57:35;2.30;;;1.30;;
61911;SDS011;49973;52.084;5.412;2022-12-07T05:00:04;4.83;;;1.23;;
61911;SDS011;49973;52.084;5.412;2022-12-07T05:02:34;5.40;;;1.30;;
61911;SDS011;49973;52.084;5.412;2022-12-07T05:05:02;4.73;;;1.63;;
61911;SDS011;49973;52.084;5.412;2022-12-07T05:07:31;5.50;;;1.53;;
61911;SDS011;49973;52.084;5.412;2022-12-07T05:10:00;7.73;;;1.30;;
61911;SDS011;49973;52.084;5.412;2022-12-07T05:12:30;2.13;;;0.60;;
61911;SDS011;49973;52.084;5.412;2022-12-07T05:14:58;7.73;;;1.50;;
61911;SDS011;49973;52.084;5.412;2022-12-07T05:17:27;4.73;;;1.30;;
61911;SDS011;49973;52.084;5.412;2022-12-07T05:19:55;0.97;;;0.90;;
61911;SDS011;49973;52.084;5.412;2022-12-07T05:22:24;7.17;;;1.20;;
61911;SDS011;49973;52.084;5.412;2022-12-07T05:24:54;2.10;;;0.80;;
61911;SDS011;49973;52.084;5.412;2022-12-07T05:27:23;14.53;;;1.50;;
61911;SDS011;49973;52.084;5.412;2022-12-07T05:29:53;3.40;;;0.93;;
61911;SDS011;49973;52.084;5.412;2022-12-07T05:32:21;8.47;;;1.20;;
61911;SDS011;49973;52.084;5.412;2022-12-07T05:34:50;4.17;;;1.40;;
61911;SDS011;49973;52.084;5.412;2022-12-07T05:37:19;6.47;;;1.53;;
61911;SDS011;49973;52.084;5.412;2022-12-07T05:39:47;2.07;;;0.97;;
61911;SDS011;49973;52.084;5.412;2022-12-07T05:42:15;4.40;;;1.33;;
61911;SDS011;49973;52.084;5.412;2022-12-07T05:44:45;7.30;;;1.03;;
61911;SDS011;49973;52.084;5.412;2022-12-07T05:47:15;3.70;;;1.20;;
61911;SDS011;49973;52.084;5.412;2022-12-07T05:49:44;5.07;;;1.27;;
61911;SDS011;49973;52.084;5.412;2022-12-07T05:52:12;4.70;;;1.07;;
61911;SDS011;49973;52.084;5.412;2022-12-07T05:54:41;1.40;;;0.70;;
61911;SDS011;49973;52.084;5.412;2022-12-07T05:57:09;2.83;;;0.93;;
61911;SDS011;49973;52.084;5.412;2022-12-07T05:59:39;8.03;;;1.63;;
61911;SDS011;49973;52.084;5.412;2022-12-07T06:02:07;3.23;;;1.23;;
61911;SDS011;49973;52.084;5.412;2022-12-07T06:04:40;4.00;;;1.53;;
61911;SDS011;49973;52.084;5.412;2022-12-07T06:07:10;7.03;;;1.53;;
61911;SDS011;49973;52.084;5.412;2022-12-07T06:09:39;5.57;;;1.63;;
61911;SDS011;49973;52.084;5.412;2022-12-07T06:12:08;2.83;;;1.30;;
61911;SDS011;49973;52.084;5.412;2022-12-07T06:14:55;2.13;;;1.30;;
61911;SDS011;49973;52.084;5.412;2022-12-07T06:17:24;5.77;;;1.63;;
61911;SDS011;49973;52.084;5.412;2022-12-07T06:19:54;6.77;;;1.77;;
61911;SDS011;49973;52.084;5.412;2022-12-07T06:22:22;2.30;;;1.60;;
61911;SDS011;49973;52.084;5.412;2022-12-07T06:24:50;7.30;;;2.13;;
61911;SDS011;49973;52.084;5.412;2022-12-07T06:27:19;5.13;;;1.87;;
61911;SDS011;49973;52.084;5.412;2022-12-07T06:29:47;3.40;;;1.77;;
61911;SDS011;49973;52.084;5.412;2022-12-07T06:32:16;8.30;;;1.97;;
61911;SDS011;49973;52.084;5.412;2022-12-07T06:34:45;10.67;;;1.60;;
61911;SDS011;49973;52.084;5.412;2022-12-07T06:37:15;6.63;;;2.30;;
61911;SDS011;49973;52.084;5.412;2022-12-07T06:39:44;6.20;;;2.03;;
61911;SDS011;49973;52.084;5.412;2022-12-07T06:42:12;3.50;;;2.27;;
61911;SDS011;49973;52.084;5.412;2022-12-07T06:44:41;13.97;;;2.57;;
61911;SDS011;49973;52.084;5.412;2022-12-07T06:47:09;3.17;;;2.00;;
61911;SDS011;49973;52.084;5.412;2022-12-07T06:49:58;6.63;;;2.20;;
61911;SDS011;49973;52.084;5.412;2022-12-07T06:52:28;7.37;;;1.97;;
61911;SDS011;49973;52.084;5.412;2022-12-07T06:54:58;13.33;;;2.93;;
61911;SDS011;49973;52.084;5.412;2022-12-07T06:57:26;2.93;;;1.90;;
61911;SDS011;49973;52.084;5.412;2022-12-07T06:59:55;10.73;;;2.10;;
61911;SDS011;49973;52.084;5.412;2022-12-07T07:02:23;4.50;;;2.33;;
61911;SDS011;49973;52.084;5.412;2022-12-07T07:04:52;5.67;;;2.03;;
61911;SDS011;49973;52.084;5.412;2022-12-07T07:07:20;4.53;;;1.93;;
61911;SDS011;49973;52.084;5.412;2022-12-07T07:09:50;10.00;;;1.87;;
61911;SDS011;49973;52.084;5.412;2022-12-07T07:12:19;7.03;;;1.70;;
61911;SDS011;49973;52.084;5.412;2022-12-07T07:14:47;5.10;;;1.70;;
61911;SDS011;49973;52.084;5.412;2022-12-07T07:17:15;2.17;;;1.67;;
61911;SDS011;49973;52.084;5.412;2022-12-07T07:19:44;6.47;;;2.00;;
61911;SDS011;49973;52.084;5.412;2022-12-07T07:22:12;9.23;;;2.73;;
61911;SDS011;49973;52.084;5.412;2022-12-07T07:24:41;10.77;;;2.90;;
61911;SDS011;49973;52.084;5.412;2022-12-07T07:27:11;13.30;;;4.53;;
61911;SDS011;49973;52.084;5.412;2022-12-07T07:29:39;10.60;;;6.97;;
61911;SDS011;49973;52.084;5.412;2022-12-07T07:32:08;11.03;;;5.00;;
61911;SDS011;49973;52.084;5.412;2022-12-07T07:34:36;13.60;;;5.10;;
61911;SDS011;49973;52.084;5.412;2022-12-07T07:37:05;5.17;;;3.97;;
61911;SDS011;49973;52.084;5.412;2022-12-07T07:39:33;3.67;;;2.50;;
61911;SDS011;49973;52.084;5.412;2022-12-07T07:42:02;13.10;;;3.60;;
61911;SDS011;49973;52.084;5.412;2022-12-07T07:44:33;10.70;;;3.67;;
61911;SDS011;49973;52.084;5.412;2022-12-07T07:47:02;6.30;;;2.87;;
61911;SDS011;49973;52.084;5.412;2022-12-07T07:49:31;19.73;;;5.33;;
61911;SDS011;49973;52.084;5.412;2022-12-07T07:51:59;20.43;;;6.83;;
61911;SDS011;49973;52.084;5.412;2022-12-07T07:54:28;24.53;;;10.47;;
61911;SDS011;49973;52.084;5.412;2022-12-07T07:56:56;27.07;;;14.60;;
61911;SDS011;49973;52.084;5.412;2022-12-07T07:59:25;33.53;;;18.43;;
61911;SDS011;49973;52.084;5.412;2022-12-07T08:01:55;23.87;;;12.50;;
61911;SDS011;49973;52.084;5.412;2022-12-07T08:04:23;27.63;;;12.23;;
61911;SDS011;49973;52.084;5.412;2022-12-07T08:06:52;13.77;;;6.53;;
61911;SDS011;49973;52.084;5.412;2022-12-07T08:09:21;15.70;;;5.00;;
61911;SDS011;49973;52.084;5.412;2022-12-07T08:11:49;15.47;;;4.20;;
61911;SDS011;49973;52.084;5.412;2022-12-07T08:14:18;8.27;;;2.77;;
61911;SDS011;49973;52.084;5.412;2022-12-07T08:16:46;9.97;;;2.97;;
61911;SDS011;49973;52.084;5.412;2022-12-07T08:19:16;7.47;;;2.43;;
61911;SDS011;49973;52.084;5.412;2022-12-07T08:21:44;10.33;;;2.73;;
61911;SDS011;49973;52.084;5.412;2022-12-07T08:24:13;3.07;;;2.37;;
61911;SDS011;49973;52.084;5.412;2022-12-07T08:26:42;9.60;;;3.10;;
61911;SDS011;49973;52.084;5.412;2022-12-07T08:29:10;12.10;;;2.47;;
61911;SDS011;49973;52.084;5.412;2022-12-07T08:31:39;7.23;;;2.10;;
61911;SDS011;49973;52.084;5.412;2022-12-07T08:34:07;3.50;;;1.43;;
61911;SDS011;49973;52.084;5.412;2022-12-07T08:36:39;10.77;;;2.33;;
61911;SDS011;49973;52.084;5.412;2022-12-07T08:39:08;5.53;;;1.83;;
61911;SDS011;49973;52.084;5.412;2022-12-07T08:41:56;5.90;;;1.70;;
61911;SDS011;49973;52.084;5.412;2022-12-07T08:44:25;14.07;;;2.57;;
61911;SDS011;49973;52.084;5.412;2022-12-07T08:46:55;9.23;;;3.47;;
61911;SDS011;49973;52.084;5.412;2022-12-07T08:49:26;7.30;;;2.40;;
61911;SDS011;49973;52.084;5.412;2022-12-07T08:52:01;10.00;;;1.70;;
61911;SDS011;49973;52.084;5.412;2022-12-07T08:54:31;5.23;;;1.60;;
61911;SDS011;49973;52.084;5.412;2022-12-07T08:57:03;3.13;;;1.50;;
61911;SDS011;49973;52.084;5.412;2022-12-07T08:59:33;5.53;;;2.37;;
61911;SDS011;49973;52.084;5.412;2022-12-07T09:02:03;7.70;;;1.60;;
61911;SDS011;49973;52.084;5.412;2022-12-07T09:04:32;4.07;;;1.10;;
61911;SDS011;49973;52.084;5.412;2022-12-07T09:07:02;5.57;;;1.90;;
61911;SDS011;49973;52.084;5.412;2022-12-07T09:09:31;5.43;;;1.37;;
61911;SDS011;49973;52.084;5.412;2022-12-07T09:11:59;5.80;;;1.53;;
61911;SDS011;49973;52.084;5.412;2022-12-07T09:14:28;5.50;;;1.27;;
61911;SDS011;49973;52.084;5.412;2022-12-07T09:17:04;11.63;;;1.67;;
61911;SDS011;49973;52.084;5.412;2022-12-07T09:19:33;5.90;;;1.37;;
61911;SDS011;49973;52.084;5.412;2022-12-07T09:22:03;3.13;;;1.77;;
61911;SDS011;49973;52.084;5.412;2022-12-07T09:24:32;15.70;;;2.03;;
61911;SDS011;49973;52.084;5.412;2022-12-07T09:27:01;10.50;;;1.43;;
61911;SDS011;49973;52.084;5.412;2022-12-07T09:29:30;4.77;;;1.63;;
61911;SDS011;49973;52.084;5.412;2022-12-07T09:31:58;7.07;;;1.77;;
61911;SDS011;49973;52.084;5.412;2022-12-07T09:34:30;6.90;;;2.53;;
61911;SDS011;49973;52.084;5.412;2022-12-07T09:37:00;4.77;;;2.73;;
61911;SDS011;49973;52.084;5.412;2022-12-07T09:39:32;10.23;;;1.97;;
61911;SDS011;49973;52.084;5.412;2022-12-07T09:42:03;6.73;;;3.23;;
61911;SDS011;49973;52.084;5.412;2022-12-07T09:44:33;7.00;;;1.70;;
61911;SDS011;49973;52.084;5.412;2022-12-07T09:47:02;6.80;;;1.20;;
61911;SDS011;49973;52.084;5.412;2022-12-07T09:49:31;15.27;;;1.70;;
61911;SDS011;49973;52.084;5.412;2022-12-07T09:52:01;4.87;;;1.47;;
61911;SDS011;49973;52.084;5.412;2022-12-07T09:54:45;8.03;;;1.77;;
61911;SDS011;49973;52.084;5.412;2022-12-07T09:57:16;3.70;;;1.37;;
61911;SDS011;49973;52.084;5.412;2022-12-07T09:59:45;2.33;;;1.30;;
61911;SDS011;49973;52.084;5.412;2022-12-07T10:02:23;2.97;;;1.37;;
61911;SDS011;49973;52.084;5.412;2022-12-07T10:04:55;4.43;;;1.27;;
61911;SDS011;49973;52.084;5.412;2022-12-07T10:07:26;4.70;;;1.80;;
61911;SDS011;49973;52.084;5.412;2022-12-07T10:09:56;13.93;;;2.50;;
61911;SDS011;49973;52.084;5.412;2022-12-07T10:12:24;5.23;;;2.00;;
61911;SDS011;49973;52.084;5.412;2022-12-07T10:14:54;2.23;;;1.53;;
61911;SDS011;49973;52.084;5.412;2022-12-07T10:17:37;5.00;;;1.90;;
61911;SDS011;49973;52.084;5.412;2022-12-07T10:20:17;7.57;;;1.83;;
61911;SDS011;49973;52.084;5.412;2022-12-07T10:22:59;5.17;;;1.90;;
61911;SDS011;49973;52.084;5.412;2022-12-07T10:25:32;2.80;;;1.70;;
61911;SDS011;49973;52.084;5.412;2022-12-07T10:28:08;7.43;;;2.23;;
61911;SDS011;49973;52.084;5.412;2022-12-07T10:30:49;5.23;;;2.00;;
61911;SDS011;49973;52.084;5.412;2022-12-07T10:33:30;7.50;;;2.07;;
61911;SDS011;49973;52.084;5.412;2022-12-07T10:36:15;3.73;;;1.80;;
61911;SDS011;49973;52.084;5.412;2022-12-07T10:38:46;4.17;;;1.60;;
61911;SDS011;49973;52.084;5.412;2022-12-07T10:41:18;10.00;;;1.83;;
61911;SDS011;49973;52.084;5.412;2022-12-07T10:43:48;3.17;;;1.43;;
61911;SDS011;49973;52.084;5.412;2022-12-07T10:49:34;5.23;;;1.93;;
61911;SDS011;49973;52.084;5.412;2022-12-07T10:52:28;5.73;;;1.70;;
61911;SDS011;49973;52.084;5.412;2022-12-07T10:55:08;3.40;;;1.10;;
61911;SDS011;49973;52.084;5.412;2022-12-07T10:57:50;8.13;;;2.43;;
61911;SDS011;49973;52.084;5.412;2022-12-07T11:00:28;4.70;;;1.50;;
61911;SDS011;49973;52.084;5.412;2022-12-07T11:03:15;3.50;;;1.17;;
61911;SDS011;49973;52.084;5.412;2022-12-07T11:06:00;3.50;;;1.30;;
61911;SDS011;49973;52.084;5.412;2022-12-07T11:08:40;3.87;;;1.93;;
61911;SDS011;49973;52.084;5.412;2022-12-07T11:11:16;7.03;;;2.27;;
61911;SDS011;49973;52.084;5.412;2022-12-07T11:16:29;12.77;;;2.37;;
61911;SDS011;49973;52.084;5.412;2022-12-07T11:19:18;4.23;;;2.00;;
61911;SDS011;49973;52.084;5.412;2022-12-07T11:22:00;9.37;;;1.33;;
61911;SDS011;49973;52.084;5.412;2022-12-07T11:24:35;4.10;;;1.23;;
61911;SDS011;49973;52.084;5.412;2022-12-07T11:27:16;3.03;;;1.60;;
61911;SDS011;49973;52.084;5.412;2022-12-07T11:29:55;5.70;;;1.10;;
61911;SDS011;49973;52.084;5.412;2022-12-07T11:32:52;7.50;;;1.47;;
61911;SDS011;49973;52.084;5.412;2022-12-07T11:35:31;3.47;;;0.97;;
61911;SDS011;49973;52.084;5.412;2022-12-07T11:38:12;6.23;;;0.80;;
61911;SDS011;49973;52.084;5.412;2022-12-07T11:40:46;4.47;;;1.10;;
61911;SDS011;49973;52.084;5.412;2022-12-07T11:43:20;7.87;;;1.73;;
61911;SDS011;49973;52.084;5.412;2022-12-07T11:45:57;10.13;;;1.70;;
61911;SDS011;49973;52.084;5.412;2022-12-07T11:48:30;4.57;;;1.53;;
61911;SDS011;49973;52.084;5.412;2022-12-07T11:51:02;3.80;;;1.30;;
61911;SDS011;49973;52.084;5.412;2022-12-07T11:53:32;3.83;;;1.47;;
61911;SDS011;49973;52.084;5.412;2022-12-07T11:56:07;3.17;;;1.10;;
61911;SDS011;49973;52.084;5.412;2022-12-07T11:58:42;4.23;;;1.13;;
61911;SDS011;49973;52.084;5.412;2022-12-07T12:04:29;3.10;;;1.40;;
61911;SDS011;49973;52.084;5.412;2022-12-07T12:07:02;6.70;;;2.30;;
61911;SDS011;49973;52.084;5.412;2022-12-07T12:09:54;7.43;;;3.27;;
61911;SDS011;49973;52.084;5.412;2022-12-07T12:12:40;5.73;;;1.87;;
61911;SDS011;49973;52.084;5.412;2022-12-07T12:15:49;4.60;;;1.50;;
61911;SDS011;49973;52.084;5.412;2022-12-07T12:18:32;4.00;;;1.37;;
61911;SDS011;49973;52.084;5.412;2022-12-07T12:21:13;2.97;;;1.30;;
61911;SDS011;49973;52.084;5.412;2022-12-07T12:23:46;3.80;;;1.33;;
61911;SDS011;49973;52.084;5.412;2022-12-07T12:26:22;6.67;;;2.40;;
61911;SDS011;49973;52.084;5.412;2022-12-07T12:28:54;6.97;;;1.33;;
61911;SDS011;49973;52.084;5.412;2022-12-07T12:31:33;5.17;;;1.60;;
61911;SDS011;49973;52.084;5.412;2022-12-07T12:37:01;4.33;;;1.20;;
61911;SDS011;49973;52.084;5.412;2022-12-07T12:39:29;6.00;;;2.10;;
61911;SDS011;49973;52.084;5.412;2022-12-07T12:41:58;7.47;;;2.30;;
61911;SDS011;49973;52.084;5.412;2022-12-07T12:44:40;5.60;;;1.77;;
61911;SDS011;49973;52.084;5.412;2022-12-07T12:47:41;5.13;;;1.70;;
61911;SDS011;49973;52.084;5.412;2022-12-07T12:50:21;2.57;;;1.10;;
61911;SDS011;49973;52.084;5.412;2022-12-07T13:01:50;1.30;;;0.90;;
61911;SDS011;49973;52.084;5.412;2022-12-07T13:04:25;3.17;;;1.80;;
61911;SDS011;49973;52.084;5.412;2022-12-07T13:13:29;4.47;;;1.20;;
61911;SDS011;49973;52.084;5.412;2022-12-07T13:25:29;1.73;;;0.80;;
61911;SDS011;49973;52.084;5.412;2022-12-07T13:28:07;0.63;;;0.57;;
61911;SDS011;49973;52.084;5.412;2022-12-07T13:30:46;5.10;;;1.20;;
61911;SDS011;49973;52.084;5.412;2022-12-07T13:33:21;2.80;;;1.87;;
61911;SDS011;49973;52.084;5.412;2022-12-07T13:35:53;2.33;;;1.60;;
61911;SDS011;49973;52.084;5.412;2022-12-07T13:38:24;5.37;;;0.87;;
61911;SDS011;49973;52.084;5.412;2022-12-07T13:41:01;1.47;;;0.87;;
61911;SDS011;49973;52.084;5.412;2022-12-07T13:43:31;1.07;;;0.50;;
61911;SDS011;49973;52.084;5.412;2022-12-07T13:46:11;3.23;;;1.00;;
61911;SDS011;49973;52.084;5.412;2022-12-07T13:48:45;4.90;;;1.60;;
61911;SDS011;49973;52.084;5.412;2022-12-07T13:51:19;6.23;;;1.90;;
61911;SDS011;49973;52.084;5.412;2022-12-07T13:53:50;16.07;;;3.63;;
61911;SDS011;49973;52.084;5.412;2022-12-07T13:56:22;11.03;;;3.40;;
61911;SDS011;49973;52.084;5.412;2022-12-07T13:58:56;9.47;;;4.93;;
61911;SDS011;49973;52.084;5.412;2022-12-07T14:01:24;10.10;;;4.90;;
61911;SDS011;49973;52.084;5.412;2022-12-07T14:03:53;7.87;;;2.27;;
61911;SDS011;49973;52.084;5.412;2022-12-07T14:06:23;23.10;;;12.67;;
61911;SDS011;49973;52.084;5.412;2022-12-07T14:09:06;11.80;;;4.33;;
61911;SDS011;49973;52.084;5.412;2022-12-07T14:11:37;5.97;;;1.77;;
61911;SDS011;49973;52.084;5.412;2022-12-07T14:14:06;5.63;;;1.90;;
61911;SDS011;49973;52.084;5.412;2022-12-07T14:16:41;7.47;;;1.37;;
61911;SDS011;49973;52.084;5.412;2022-12-07T14:22:19;4.50;;;1.97;;
61911;SDS011;49973;52.084;5.412;2022-12-07T14:25:15;6.93;;;2.47;;
61911;SDS011;49973;52.084;5.412;2022-12-07T14:27:51;3.67;;;1.60;;
61911;SDS011;49973;52.084;5.412;2022-12-07T14:30:26;14.13;;;1.83;;
61911;SDS011;49973;52.084;5.412;2022-12-07T14:32:57;2.53;;;1.50;;
61911;SDS011;49973;52.084;5.412;2022-12-07T14:35:27;4.13;;;1.80;;
61911;SDS011;49973;52.084;5.412;2022-12-07T14:37:56;4.60;;;1.80;;
61911;SDS011;49973;52.084;5.412;2022-12-07T14:40:26;2.73;;;1.10;;
61911;SDS011;49973;52.084;5.412;2022-12-07T14:42:59;3.60;;;1.47;;
61911;SDS011;49973;52.084;5.412;2022-12-07T14:45:29;7.97;;;1.00;;
61911;SDS011;49973;52.084;5.412;2022-12-07T14:47:58;5.33;;;1.30;;
61911;SDS011;49973;52.084;5.412;2022-12-07T14:50:48;7.47;;;1.87;;
61911;SDS011;49973;52.084;5.412;2022-12-07T14:53:40;5.47;;;1.80;;
61911;SDS011;49973;52.084;5.412;2022-12-07T14:56:17;6.27;;;1.67;;
61911;SDS011;49973;52.084;5.412;2022-12-07T14:58:47;9.13;;;2.07;;
61911;SDS011;49973;52.084;5.412;2022-12-07T15:01:15;4.10;;;1.03;;
61911;SDS011;49973;52.084;5.412;2022-12-07T15:03:44;3.93;;;1.97;;
61911;SDS011;49973;52.084;5.412;2022-12-07T15:06:13;5.75;;;1.27;;
61911;SDS011;49973;52.084;5.412;2022-12-07T15:08:43;4.93;;;1.93;;
61911;SDS011;49973;52.084;5.412;2022-12-07T15:11:12;5.07;;;1.20;;
61911;SDS011;49973;52.084;5.412;2022-12-07T15:13:42;3.50;;;1.53;;
61911;SDS011;49973;52.084;5.412;2022-12-07T15:16:29;2.30;;;1.27;;
61911;SDS011;49973;52.084;5.412;2022-12-07T15:19:18;6.50;;;1.90;;
61911;SDS011;49973;52.084;5.412;2022-12-07T15:21:55;7.20;;;3.20;;
61911;SDS011;49973;52.084;5.412;2022-12-07T15:24:25;19.07;;;7.20;;
61911;SDS011;49973;52.084;5.412;2022-12-07T15:26:54;9.13;;;5.83;;
61911;SDS011;49973;52.084;5.412;2022-12-07T15:29:22;6.90;;;4.70;;
61911;SDS011;49973;52.084;5.412;2022-12-07T15:31:52;6.30;;;3.57;;
61911;SDS011;49973;52.084;5.412;2022-12-07T15:34:23;4.60;;;1.50;;
61911;SDS011;49973;52.084;5.412;2022-12-07T15:36:53;6.43;;;1.27;;
61911;SDS011;49973;52.084;5.412;2022-12-07T15:39:22;3.53;;;0.93;;
61911;SDS011;49973;52.084;5.412;2022-12-07T15:41:50;4.63;;;1.63;;
61911;SDS011;49973;52.084;5.412;2022-12-07T15:44:19;8.60;;;2.17;;
61911;SDS011;49973;52.084;5.412;2022-12-07T15:47:06;4.43;;;2.53;;
61911;SDS011;49973;52.084;5.412;2022-12-07T15:49:34;5.00;;;2.10;;
61911;SDS011;49973;52.084;5.412;2022-12-07T15:52:03;9.43;;;3.20;;
61911;SDS011;49973;52.084;5.412;2022-12-07T15:54:32;7.20;;;2.27;;